Eviapetrol II — SY6858 — position and weather

sailwx.info

Track history (hours):
 
Tides and Currents Weather Stations Pressure Air Temp Water Temp Dewpoint Dewpoint Depression Visibility Wind Speed Wind Dir Waves Ship Positions

Eviapetrol II

Last reported at 2017-Aug-16 05:08 UTC. Time now 2017-Aug-16 21:50 UTC.
Position N 40°25' E 025°20'.

Length 78 m; draft 3.6 m.

Type: Tanker. MMSI: 240493000.

Date/timePositionNaut miles runAvg speedWind from/ knotsBaromVisibWave heightAir tempDewpointWater temp
2017-Aug-16 05:08N 40°25' E 025°20'2 9.4
2017-Aug-16 04:54N 40°23' E 025°18'4 9.2
2017-Aug-16 04:31N 40°20' E 025°15'6 9.0
2017-Aug-16 03:48N 40°14' E 025°11'3 9.4
2017-Aug-16 03:29N 40°12' E 025°10'4 9.3
2017-Aug-16 03:01N 40°08' E 025°07'149 8.8
2017-Aug-15 10:04N 37°45' E 024°15'17 8.2
2017-Aug-15 07:59N 37°38' E 023°56'4 9.5
2017-Aug-15 07:30N 37°38' E 023°50'5 9.3
2017-Aug-15 07:01N 37°39' E 023°44'5 9.3
2017-Aug-15 06:31N 37°43' E 023°41'510.1
2017-Aug-15 06:00N 37°48' E 023°38'510.2
2017-Aug-15 05:30N 37°52' E 023°36'4 8.4
2017-Aug-15 05:00N 37°56' E 023°35'4 7.8
2017-Aug-15 04:30N 38°00' E 023°33'2 4.2
2017-Aug-15 03:59N 38°02' E 023°36'0 0.0
2017-Aug-14 17:45N 38°02' E 023°36'0 0.0
2017-Aug-14 17:14N 38°02' E 023°36'0 0.0
2017-Aug-14 16:58N 38°02' E 023°36'0 0.0
2017-Aug-14 16:29N 38°02' E 023°36'0 0.0
2017-Aug-14 15:58N 38°02' E 023°36'0 0.0
2017-Aug-14 15:28N 38°02' E 023°36'0 0.0
2017-Aug-14 15:00N 38°02' E 023°36'0 0.0
2017-Aug-14 14:29N 38°02' E 023°36'0 0.0
2017-Aug-14 13:59N 38°02' E 023°36'0 0.0
2017-Aug-14 13:30N 38°02' E 023°36'0 1.0
2017-Aug-14 13:00N 38°01' E 023°35'0 0.3
2017-Aug-14 12:26N 38°01' E 023°35'0 1.1
2017-Aug-14 12:00N 38°01' E 023°35'2 4.9
2017-Aug-14 11:31N 38°02' E 023°32'0 0.2
2017-Aug-14 11:00N 38°02' E 023°32'0 0.0
2017-Aug-14 10:30N 38°02' E 023°32'0 0.0
2017-Aug-14 10:00N 38°02' E 023°32'0 0.0
2017-Aug-14 09:31N 38°02' E 023°32'0 0.0
2017-Aug-14 09:01N 38°02' E 023°32'0 0.0
2017-Aug-14 08:30N 38°02' E 023°32'0 0.0
2017-Aug-14 08:00N 38°02' E 023°32'0 0.0
2017-Aug-14 07:30N 38°02' E 023°32'0 0.0
2017-Aug-14 07:00N 38°02' E 023°32'0 0.0
2017-Aug-14 06:30N 38°02' E 023°32'0 0.8
2017-Aug-14 06:01N 38°02' E 023°31'4 8.8
2017-Aug-14 05:30N 37°58' E 023°33'4 7.3
2017-Aug-14 05:00N 37°54' E 023°35'0 1.0
2017-Aug-14 04:30N 37°55' E 023°35'3 5.2
2017-Aug-14 04:01N 37°53' E 023°37'5 9.8
2017-Aug-14 03:30N 37°49' E 023°41'5 9.4
2017-Aug-14 03:00N 37°45' E 023°44'5 9.4
2017-Aug-14 02:30N 37°40' E 023°47'610.0
2017-Aug-14 01:56N 37°39' E 023°53'  
2017-Aug-09 14:24N 37°38' E 023°56'4 8.4
2017-Aug-09 13:58N 37°38' E 023°51'4 8.6
2017-Aug-09 13:30N 37°39' E 023°46'4 8.1
2017-Aug-09 13:01N 37°41' E 023°42'5 9.5
2017-Aug-09 12:30N 37°45' E 023°39'5 9.9
2017-Aug-09 12:00N 37°50' E 023°37'510.0
2017-Aug-09 11:31N 37°55' E 023°36'4 8.4
2017-Aug-09 11:01N 37°58' E 023°33'4 4.7
2017-Aug-09 10:12N 38°02' E 023°33'1 3.9
2017-Aug-09 10:01N 38°02' E 023°34'2 2.7
2017-Aug-09 09:24N 38°02' E 023°36'0 0.0
2017-Aug-09 08:59N 38°02' E 023°36'0 0.0
2017-Aug-09 08:28N 38°02' E 023°36'0 0.0
2017-Aug-09 08:00N 38°02' E 023°36'0 0.0
2017-Aug-09 07:29N 38°02' E 023°36'0 0.0
2017-Aug-09 07:00N 38°02' E 023°36'0 0.0
2017-Aug-09 06:27N 38°02' E 023°36'0 0.0
2017-Aug-09 06:00N 38°02' E 023°36'0 0.0
2017-Aug-09 05:30N 38°02' E 023°36'0 0.0
2017-Aug-09 05:00N 38°02' E 023°36'0 0.0
2017-Aug-09 04:30N 38°02' E 023°36'0 0.0
2017-Aug-09 03:58N 38°02' E 023°36'0 0.0
2017-Aug-09 03:26N 38°02' E 023°36'0 0.0
2017-Aug-09 03:00N 38°02' E 023°36'0 0.0
2017-Aug-09 02:30N 38°02' E 023°36'0 0.0
2017-Aug-09 02:00N 38°02' E 023°36'0 0.0
2017-Aug-09 01:30N 38°02' E 023°36'0 0.0
2017-Aug-09 01:00N 38°02' E 023°36'0 0.0
2017-Aug-09 00:29N 38°02' E 023°36'0 0.0
2017-Aug-08 23:56N 38°02' E 023°36'0 0.0
2017-Aug-08 23:29N 38°02' E 023°36'0 0.0
2017-Aug-08 22:54N 38°02' E 023°36'0 0.0
2017-Aug-08 22:29N 38°02' E 023°36'0 0.0
2017-Aug-08 21:57N 38°02' E 023°36'0 0.0
2017-Aug-08 21:30N 38°02' E 023°36'0 0.0
2017-Aug-08 20:54N 38°02' E 023°36'2 3.9
2017-Aug-08 20:30N 38°01' E 023°34'510.5
2017-Aug-08 20:00N 38°00' E 023°27'4 7.9
2017-Aug-08 19:30N 37°57' E 023°24'5 9.0
2017-Aug-08 19:00N 37°53' E 023°25'510.0
2017-Aug-08 18:30N 37°53' E 023°31'3 5.2
2017-Aug-08 18:00N 37°55' E 023°33'0 0.2
2017-Aug-08 17:30N 37°55' E 023°33'0 0.0
2017-Aug-08 17:00N 37°55' E 023°33'0 0.0
2017-Aug-08 16:30N 37°55' E 023°33'0 0.0
2017-Aug-08 16:00N 37°55' E 023°33'0 0.0
2017-Aug-08 15:30N 37°55' E 023°33'0 0.0
2017-Aug-08 15:00N 37°55' E 023°33'0 0.0
2017-Aug-08 14:30N 37°55' E 023°33'0 0.0
2017-Aug-08 14:00N 37°55' E 023°33'0 0.0
2017-Aug-08 13:30N 37°55' E 023°33'0 0.0
2017-Aug-08 13:00N 37°55' E 023°33'0 0.0
2017-Aug-08 12:30N 37°55' E 023°33'0 0.0
2017-Aug-08 12:00N 37°55' E 023°33'0 0.0
2017-Aug-08 11:30N 37°55' E 023°33'0 0.0
2017-Aug-08 11:00N 37°55' E 023°33'0 0.0
2017-Aug-08 10:30N 37°55' E 023°33'0 0.0
2017-Aug-08 10:00N 37°55' E 023°33'0 0.0
2017-Aug-08 09:30N 37°55' E 023°33'0 0.0
2017-Aug-08 09:00N 37°55' E 023°33'0 0.0
2017-Aug-08 08:30N 37°55' E 023°33'0 0.0
2017-Aug-08 08:00N 37°55' E 023°33'0 0.7
2017-Aug-08 07:30N 37°55' E 023°33'4 8.9
2017-Aug-08 07:00N 37°52' E 023°38'510.0
2017-Aug-08 06:30N 37°48' E 023°41'5 9.9
2017-Aug-08 06:00N 37°43' E 023°44'5 8.8
2017-Aug-08 05:29N 37°40' E 023°48'710.5
2017-Aug-08 04:50N 37°38' E 023°56'  
Track history (hours):
 
Tides and Currents Weather Stations Pressure Air Temp Water Temp Dewpoint Dewpoint Depression Visibility Wind Speed Wind Dir Waves Ship Positions

Eviapetrol II

Last reported at 2017-Aug-16 05:08 UTC. Time now 2017-Aug-16 21:50 UTC.
Position N 40°25' E 025°20'.

Length 78 m; draft 3.6 m.

Type: Tanker. MMSI: 240493000.

Date/timePositionNaut miles runAvg speedWind from/ knotsBaromVisibWave heightAir tempDewpointWater temp
2017-Aug-16 05:08N 40°25' E 025°20'2 9.4
2017-Aug-16 04:54N 40°23' E 025°18'4 9.2
2017-Aug-16 04:31N 40°20' E 025°15'6 9.0
2017-Aug-16 03:48N 40°14' E 025°11'3 9.4
2017-Aug-16 03:29N 40°12' E 025°10'4 9.3
2017-Aug-16 03:01N 40°08' E 025°07'149 8.8
2017-Aug-15 10:04N 37°45' E 024°15'17 8.2
2017-Aug-15 07:59N 37°38' E 023°56'4 9.5
2017-Aug-15 07:30N 37°38' E 023°50'5 9.3
2017-Aug-15 07:01N 37°39' E 023°44'5 9.3
2017-Aug-15 06:31N 37°43' E 023°41'510.1
2017-Aug-15 06:00N 37°48' E 023°38'510.2
2017-Aug-15 05:30N 37°52' E 023°36'4 8.4
2017-Aug-15 05:00N 37°56' E 023°35'4 7.8
2017-Aug-15 04:30N 38°00' E 023°33'2 4.2
2017-Aug-15 03:59N 38°02' E 023°36'0 0.0
2017-Aug-14 17:45N 38°02' E 023°36'0 0.0
2017-Aug-14 17:14N 38°02' E 023°36'0 0.0
2017-Aug-14 16:58N 38°02' E 023°36'0 0.0
2017-Aug-14 16:29N 38°02' E 023°36'0 0.0
2017-Aug-14 15:58N 38°02' E 023°36'0 0.0
2017-Aug-14 15:28N 38°02' E 023°36'0 0.0
2017-Aug-14 15:00N 38°02' E 023°36'0 0.0
2017-Aug-14 14:29N 38°02' E 023°36'0 0.0
2017-Aug-14 13:59N 38°02' E 023°36'0 0.0
2017-Aug-14 13:30N 38°02' E 023°36'0 1.0
2017-Aug-14 13:00N 38°01' E 023°35'0 0.3
2017-Aug-14 12:26N 38°01' E 023°35'0 1.1
2017-Aug-14 12:00N 38°01' E 023°35'2 4.9
2017-Aug-14 11:31N 38°02' E 023°32'0 0.2
2017-Aug-14 11:00N 38°02' E 023°32'0 0.0
2017-Aug-14 10:30N 38°02' E 023°32'0 0.0
2017-Aug-14 10:00N 38°02' E 023°32'0 0.0
2017-Aug-14 09:31N 38°02' E 023°32'0 0.0
2017-Aug-14 09:01N 38°02' E 023°32'0 0.0
2017-Aug-14 08:30N 38°02' E 023°32'0 0.0
2017-Aug-14 08:00N 38°02' E 023°32'0 0.0
2017-Aug-14 07:30N 38°02' E 023°32'0 0.0
2017-Aug-14 07:00N 38°02' E 023°32'0 0.0
2017-Aug-14 06:30N 38°02' E 023°32'0 0.8
2017-Aug-14 06:01N 38°02' E 023°31'4 8.8
2017-Aug-14 05:30N 37°58' E 023°33'4 7.3
2017-Aug-14 05:00N 37°54' E 023°35'0 1.0
2017-Aug-14 04:30N 37°55' E 023°35'3 5.2
2017-Aug-14 04:01N 37°53' E 023°37'5 9.8
2017-Aug-14 03:30N 37°49' E 023°41'5 9.4
2017-Aug-14 03:00N 37°45' E 023°44'5 9.4
2017-Aug-14 02:30N 37°40' E 023°47'610.0
2017-Aug-14 01:56N 37°39' E 023°53'  
2017-Aug-09 14:24N 37°38' E 023°56'4 8.4
2017-Aug-09 13:58N 37°38' E 023°51'4 8.6
2017-Aug-09 13:30N 37°39' E 023°46'4 8.1
2017-Aug-09 13:01N 37°41' E 023°42'5 9.5
2017-Aug-09 12:30N 37°45' E 023°39'5 9.9
2017-Aug-09 12:00N 37°50' E 023°37'510.0
2017-Aug-09 11:31N 37°55' E 023°36'4 8.4
2017-Aug-09 11:01N 37°58' E 023°33'4 4.7
2017-Aug-09 10:12N 38°02' E 023°33'1 3.9
2017-Aug-09 10:01N 38°02' E 023°34'2 2.7
2017-Aug-09 09:24N 38°02' E 023°36'0 0.0
2017-Aug-09 08:59N 38°02' E 023°36'0 0.0
2017-Aug-09 08:28N 38°02' E 023°36'0 0.0
2017-Aug-09 08:00N 38°02' E 023°36'0 0.0
2017-Aug-09 07:29N 38°02' E 023°36'0 0.0
2017-Aug-09 07:00N 38°02' E 023°36'0 0.0
2017-Aug-09 06:27N 38°02' E 023°36'0 0.0
2017-Aug-09 06:00N 38°02' E 023°36'0 0.0
2017-Aug-09 05:30N 38°02' E 023°36'0 0.0
2017-Aug-09 05:00N 38°02' E 023°36'0 0.0
2017-Aug-09 04:30N 38°02' E 023°36'0 0.0
2017-Aug-09 03:58N 38°02' E 023°36'0 0.0
2017-Aug-09 03:26N 38°02' E 023°36'0 0.0
2017-Aug-09 03:00N 38°02' E 023°36'0 0.0
2017-Aug-09 02:30N 38°02' E 023°36'0 0.0
2017-Aug-09 02:00N 38°02' E 023°36'0 0.0
2017-Aug-09 01:30N 38°02' E 023°36'0 0.0
2017-Aug-09 01:00N 38°02' E 023°36'0 0.0
2017-Aug-09 00:29N 38°02' E 023°36'0 0.0
2017-Aug-08 23:56N 38°02' E 023°36'0 0.0
2017-Aug-08 23:29N 38°02' E 023°36'0 0.0
2017-Aug-08 22:54N 38°02' E 023°36'0 0.0
2017-Aug-08 22:29N 38°02' E 023°36'0 0.0
2017-Aug-08 21:57N 38°02' E 023°36'0 0.0
2017-Aug-08 21:30N 38°02' E 023°36'0 0.0
2017-Aug-08 20:54N 38°02' E 023°36'2 3.9
2017-Aug-08 20:30N 38°01' E 023°34'510.5
2017-Aug-08 20:00N 38°00' E 023°27'4 7.9
2017-Aug-08 19:30N 37°57' E 023°24'5 9.0
2017-Aug-08 19:00N 37°53' E 023°25'510.0
2017-Aug-08 18:30N 37°53' E 023°31'3 5.2
2017-Aug-08 18:00N 37°55' E 023°33'0 0.2
2017-Aug-08 17:30N 37°55' E 023°33'0 0.0
2017-Aug-08 17:00N 37°55' E 023°33'0 0.0
2017-Aug-08 16:30N 37°55' E 023°33'0 0.0
2017-Aug-08 16:00N 37°55' E 023°33'0 0.0
2017-Aug-08 15:30N 37°55' E 023°33'0 0.0
2017-Aug-08 15:00N 37°55' E 023°33'0 0.0
2017-Aug-08 14:30N 37°55' E 023°33'0 0.0
2017-Aug-08 14:00N 37°55' E 023°33'0 0.0
2017-Aug-08 13:30N 37°55' E 023°33'0 0.0
2017-Aug-08 13:00N 37°55' E 023°33'0 0.0
2017-Aug-08 12:30N 37°55' E 023°33'0 0.0
2017-Aug-08 12:00N 37°55' E 023°33'0 0.0
2017-Aug-08 11:30N 37°55' E 023°33'0 0.0
2017-Aug-08 11:00N 37°55' E 023°33'0 0.0
2017-Aug-08 10:30N 37°55' E 023°33'0 0.0
2017-Aug-08 10:00N 37°55' E 023°33'0 0.0
2017-Aug-08 09:30N 37°55' E 023°33'0 0.0
2017-Aug-08 09:00N 37°55' E 023°33'0 0.0
2017-Aug-08 08:30N 37°55' E 023°33'0 0.0
2017-Aug-08 08:00N 37°55' E 023°33'0 0.7
2017-Aug-08 07:30N 37°55' E 023°33'4 8.9
2017-Aug-08 07:00N 37°52' E 023°38'510.0
2017-Aug-08 06:30N 37°48' E 023°41'5 9.9
2017-Aug-08 06:00N 37°43' E 023°44'5 8.8
2017-Aug-08 05:29N 37°40' E 023°48'710.5
2017-Aug-08 04:50N 37°38' E 023°56'  

Dump ship's entire track history